createdAt,value
2018-11-11T00:01:00.477Z,67.28
2018-11-11T00:03:29.615Z,68.06
2018-11-11T00:05:58.756Z,67.99
2018-11-11T00:08:27.903Z,67.70
2018-11-11T00:10:57.101Z,68.73
2018-11-11T00:13:26.232Z,68.52
2018-11-11T00:15:55.377Z,68.99
2018-11-11T00:18:24.524Z,69.04
2018-11-11T00:20:53.675Z,70.21
2018-11-11T00:23:22.814Z,70.94
2018-11-11T00:25:51.970Z,70.17
2018-11-11T00:28:21.123Z,71.75
2018-11-11T00:30:50.270Z,71.24
2018-11-11T00:33:19.435Z,71.65
2018-11-11T00:35:48.591Z,70.91
2018-11-11T00:38:17.751Z,70.33
2018-11-11T00:40:47.672Z,70.83
2018-11-11T00:43:17.667Z,70.68
2018-11-11T00:45:47.690Z,70.76
2018-11-11T00:48:17.700Z,69.82
2018-11-11T00:50:47.727Z,70.67
2018-11-11T00:53:19.838Z,70.87
2018-11-11T00:55:49.339Z,70.84
2018-11-11T00:58:18.482Z,70.68
2018-11-11T01:00:47.699Z,71.59
2018-11-11T01:03:17.699Z,71.12
2018-11-11T01:05:47.798Z,70.76
2018-11-11T01:08:17.771Z,70.92
2018-11-11T01:10:47.791Z,70.73
2018-11-11T01:13:17.783Z,70.98
2018-11-11T01:15:47.703Z,71.12
2018-11-11T01:18:17.850Z,71.46
2018-11-11T01:20:47.765Z,70.52
2018-11-11T01:23:17.767Z,70.58
2018-11-11T01:25:47.824Z,71.61
2018-11-11T01:28:17.787Z,70.92
2018-11-11T01:30:47.793Z,70.84
2018-11-11T01:33:17.817Z,71.30
2018-11-11T01:35:46.955Z,70.58
2018-11-11T01:38:16.120Z,71.15
2018-11-11T01:40:45.354Z,71.58
2018-11-11T01:43:14.502Z,71.38
2018-11-11T01:45:43.648Z,71.69
2018-11-11T01:48:12.792Z,71.49
2018-11-11T01:50:41.929Z,71.88
2018-11-11T01:53:11.109Z,71.16
2018-11-11T01:55:40.243Z,71.33
2018-11-11T01:58:09.390Z,71.94
2018-11-11T02:00:38.531Z,71.83
2018-11-11T02:03:07.743Z,71.92
2018-11-11T02:05:36.886Z,71.60
2018-11-11T02:08:06.455Z,71.81
2018-11-11T02:10:35.603Z,71.48
2018-11-11T02:13:06.048Z,71.38
2018-11-11T02:15:35.195Z,71.25
2018-11-11T02:18:04.347Z,70.82
2018-11-11T02:20:34.595Z,71.25
2018-11-11T02:23:03.758Z,70.80
2018-11-11T02:25:32.928Z,71.59
2018-11-11T02:28:02.078Z,72.16
2018-11-11T02:30:31.223Z,71.40
2018-11-11T02:33:00.384Z,72.09
2018-11-11T02:35:29.518Z,71.79
2018-11-11T02:37:58.671Z,71.21
2018-11-11T02:40:27.811Z,71.57
2018-11-11T02:42:56.968Z,71.97
2018-11-11T02:45:26.147Z,71.64
2018-11-11T02:47:55.280Z,72.15
2018-11-11T02:50:24.432Z,71.18
2018-11-11T02:52:53.579Z,71.49
2018-11-11T02:55:22.723Z,70.99
2018-11-11T02:57:51.851Z,70.87
2018-11-11T03:00:21.759Z,71.13
2018-11-11T03:02:50.983Z,71.54
2018-11-11T03:05:20.572Z,71.20
2018-11-11T03:07:49.710Z,71.33
2018-11-11T03:10:19.253Z,70.50
2018-11-11T03:12:49.378Z,71.14
2018-11-11T03:15:18.872Z,70.71
2018-11-11T03:17:48.043Z,70.28
2018-11-11T03:20:18.296Z,71.14
2018-11-11T03:22:48.012Z,70.78
2018-11-11T03:25:18.323Z,70.77
2018-11-11T03:27:47.986Z,70.88
2018-11-11T03:30:18.556Z,71.32
2018-11-11T03:32:48.036Z,70.96
2018-11-11T03:35:17.959Z,71.62
2018-11-11T03:37:47.962Z,71.27
2018-11-11T03:40:19.247Z,71.31
2018-11-11T03:42:48.867Z,70.83
2018-11-11T03:45:19.079Z,70.61
2018-11-11T03:47:49.317Z,70.68
2018-11-11T03:50:18.471Z,70.22
2018-11-11T03:52:48.322Z,70.51
2018-11-11T03:55:18.234Z,70.48
2018-11-11T03:57:47.987Z,70.17
2018-11-11T04:00:18.201Z,69.90
2018-11-11T04:02:48.038Z,70.24
2018-11-11T04:05:18.504Z,70.55
2018-11-11T04:07:48.070Z,70.40
2018-11-11T04:10:19.209Z,70.30
2018-11-11T04:12:49.074Z,70.66
2018-11-11T04:15:19.402Z,70.29
2018-11-11T04:17:48.920Z,70.77
2018-11-11T04:20:19.434Z,70.38
2018-11-11T04:22:48.595Z,70.17
2018-11-11T04:25:18.747Z,70.24
2018-11-11T04:27:48.097Z,70.36
2018-11-11T04:30:18.117Z,70.62
2018-11-11T04:32:48.035Z,69.58
2018-11-11T04:35:18.103Z,70.28
2018-11-11T04:37:48.061Z,70.19
2018-11-11T04:40:18.066Z,70.28
2018-11-11T04:42:48.099Z,70.01
2018-11-11T04:45:18.118Z,69.70
2018-11-11T04:47:48.132Z,70.47
2018-11-11T04:50:18.714Z,70.43
2018-11-11T04:52:48.120Z,69.74
2018-11-11T04:55:18.043Z,70.14
2018-11-11T04:57:47.197Z,70.22
2018-11-11T05:00:16.339Z,70.42
2018-11-11T05:02:45.535Z,70.96
2018-11-11T05:05:15.110Z,70.75
2018-11-11T05:07:44.250Z,70.51
2018-11-11T05:10:13.826Z,70.11
2018-11-11T05:12:43.075Z,69.67
2018-11-11T05:15:13.358Z,69.70
2018-11-11T05:17:42.761Z,69.97
2018-11-11T05:20:12.773Z,69.95
2018-11-11T05:22:42.494Z,70.04
2018-11-11T05:25:13.554Z,70.17
2018-11-11T05:27:43.037Z,70.68
2018-11-11T05:30:12.922Z,70.36
2018-11-11T05:32:42.066Z,70.33
2018-11-11T05:35:11.944Z,70.30
2018-11-11T05:37:41.678Z,70.75
2018-11-11T05:40:11.974Z,70.22
2018-11-11T05:42:41.902Z,70.92
2018-11-11T05:45:12.239Z,71.17
2018-11-11T05:47:41.843Z,70.89
2018-11-11T05:50:13.646Z,71.08
2018-11-11T05:52:43.651Z,71.96
2018-11-11T05:55:12.818Z,71.83
2018-11-11T05:57:42.050Z,71.75
2018-11-11T06:00:12.743Z,71.76
2018-11-11T06:02:42.026Z,72.52
2018-11-11T06:05:12.502Z,71.96
2018-11-11T06:07:41.654Z,72.43
2018-11-11T06:10:12.396Z,72.04
2018-11-11T06:12:41.534Z,72.76
2018-11-11T06:15:11.887Z,72.68
2018-11-11T06:17:42.515Z,72.74
2018-11-11T06:20:15.129Z,71.83
2018-11-11T06:22:44.303Z,72.67
2018-11-11T06:25:13.447Z,72.24
2018-11-11T06:27:42.673Z,72.70
2018-11-11T06:30:12.326Z,73.12
2018-11-11T06:32:41.551Z,72.91
2018-11-11T06:35:10.704Z,72.54
2018-11-11T06:37:40.118Z,72.55
2018-11-11T06:41:44.467Z,73.59
2018-11-11T06:44:13.632Z,75.24
2018-11-11T06:46:42.768Z,74.46
2018-11-11T06:49:11.914Z,74.25
2018-11-11T06:51:41.267Z,73.55
2018-11-11T06:54:10.475Z,74.62
2018-11-11T07:12:05.747Z,73.78
2018-11-11T07:14:35.953Z,74.17
2018-11-11T07:17:05.279Z,74.06
2018-11-11T07:19:34.498Z,73.62
2018-11-11T07:22:03.694Z,73.84
2018-11-11T07:24:33.248Z,73.31
2018-11-11T07:27:02.383Z,73.30
2018-11-11T07:29:35.188Z,73.18
2018-11-11T07:32:04.383Z,72.02
2018-11-11T07:34:33.526Z,72.96
2018-11-11T07:37:02.693Z,73.17
2018-11-11T07:39:31.818Z,73.50
2018-11-11T07:42:00.949Z,73.34
2018-11-11T07:44:30.085Z,72.54
2018-11-11T07:46:59.214Z,73.17
2018-11-11T07:49:28.355Z,72.44
2018-11-11T07:51:58.102Z,72.27
2018-11-11T07:54:27.170Z,72.09
2018-11-11T07:56:56.307Z,71.96
2018-11-11T07:59:25.450Z,71.48
2018-11-11T08:01:54.647Z,70.82
2018-11-11T08:04:23.832Z,71.03
2018-11-11T08:06:53.000Z,70.67
2018-11-11T08:09:22.148Z,69.70
2018-11-11T08:12:00.236Z,69.13
2018-11-11T08:14:29.641Z,70.47
2018-11-11T08:16:59.041Z,69.36
2018-11-11T08:19:28.342Z,68.95
2018-11-11T08:21:58.139Z,67.73
2018-11-11T08:24:27.299Z,68.19
2018-11-11T08:26:56.443Z,68.48
2018-11-11T08:29:25.599Z,68.77
2018-11-11T08:31:54.839Z,68.09
2018-11-11T08:34:23.982Z,68.63
2018-11-11T08:36:53.148Z,67.03
2018-11-11T08:39:22.291Z,67.62
2018-11-11T08:41:51.427Z,67.77
2018-11-11T08:44:20.572Z,68.16
2018-11-11T08:46:49.745Z,66.96
2018-11-11T08:49:18.895Z,66.02
2018-11-11T08:51:48.034Z,65.88
2018-11-11T08:54:17.192Z,67.19
2018-11-11T08:56:46.351Z,65.92
2018-11-11T08:59:15.493Z,65.92
2018-11-11T09:01:44.710Z,65.04
2018-11-11T09:04:13.838Z,65.38
2018-11-11T09:06:43.003Z,65.05
2018-11-11T09:09:12.130Z,65.33
2018-11-11T09:11:41.418Z,65.54
2018-11-11T09:14:10.587Z,64.40
2018-11-11T09:32:06.847Z,65.13
2018-11-11T09:34:36.048Z,64.43
2018-11-11T09:37:05.352Z,63.50
2018-11-11T09:39:34.506Z,64.29
2018-11-11T09:42:03.650Z,64.03
2018-11-11T09:44:32.830Z,64.13
2018-11-11T09:47:02.012Z,63.44
2018-11-11T09:49:31.350Z,63.96
2018-11-11T09:52:00.559Z,62.97
2018-11-11T09:54:29.703Z,62.76
2018-11-11T09:56:58.882Z,60.23
2018-11-11T09:59:28.062Z,60.70
2018-11-11T10:01:58.223Z,63.14
2018-11-11T10:04:30.444Z,61.69
2018-11-11T10:07:06.129Z,61.57
2018-11-11T10:09:45.103Z,61.68
2018-11-11T10:12:20.421Z,61.68
2018-11-11T10:14:53.672Z,61.24
2018-11-11T10:17:28.828Z,61.41
2018-11-11T10:20:12.360Z,60.75
2018-11-11T10:22:45.311Z,61.66
2018-11-11T10:25:20.418Z,61.14
2018-11-11T10:29:01.577Z,62.29
2018-11-11T10:31:39.610Z,63.05
2018-11-11T10:34:12.768Z,63.30
2018-11-11T10:36:48.639Z,62.30
2018-11-11T10:39:22.094Z,62.14
2018-11-11T10:41:57.815Z,61.68
2018-11-11T10:44:32.745Z,61.53
2018-11-11T10:47:03.791Z,62.64
2018-11-11T10:49:37.558Z,62.64
2018-11-11T10:52:06.764Z,63.46
2018-11-11T10:54:35.919Z,62.76
2018-11-11T10:57:05.086Z,62.09
2018-11-11T10:59:34.226Z,62.33
2018-11-11T11:02:08.656Z,62.70
2018-11-11T11:04:43.128Z,61.82
2018-11-11T11:07:12.349Z,62.54
2018-11-11T11:09:41.492Z,62.64
2018-11-11T11:12:10.854Z,62.57
2018-11-11T11:14:40.830Z,61.41
2018-11-11T11:17:10.921Z,61.82
2018-11-11T11:19:40.949Z,61.88
2018-11-11T11:22:10.951Z,61.71
2018-11-11T11:24:40.948Z,62.32
2018-11-11T11:27:10.922Z,59.88
2018-11-11T11:29:40.956Z,60.03
2018-11-11T11:32:10.980Z,60.57
2018-11-11T11:34:40.930Z,59.88
2018-11-11T11:37:10.978Z,59.05
2018-11-11T11:39:40.924Z,59.19
2018-11-11T11:42:10.979Z,59.04
2018-11-11T11:44:41.335Z,60.71
2018-11-11T11:47:10.992Z,58.43
2018-11-11T11:49:41.070Z,57.88
2018-11-11T11:52:11.311Z,56.96
2018-11-11T11:54:41.018Z,57.51
2018-11-11T11:57:11.181Z,58.66
2018-11-11T11:59:41.122Z,59.44
2018-11-11T12:02:11.208Z,59.64
2018-11-11T12:04:41.090Z,58.60
2018-11-11T12:07:11.059Z,59.63
2018-11-11T12:09:41.033Z,59.73
2018-11-11T12:12:11.057Z,60.21
2018-11-11T12:14:41.128Z,60.79
2018-11-11T12:17:11.252Z,60.11
2018-11-11T12:19:41.105Z,60.40
2018-11-11T12:22:11.203Z,60.67
2018-11-11T12:24:41.135Z,59.45
2018-11-11T12:27:11.190Z,60.21
2018-11-11T12:29:41.172Z,60.26
2018-11-11T12:32:11.120Z,60.14
2018-11-11T12:34:41.719Z,60.41
2018-11-11T12:37:11.128Z,61.30
2018-11-11T12:39:41.176Z,59.90
2018-11-11T12:42:11.156Z,61.69
2018-11-11T12:44:41.245Z,61.66
2018-11-11T12:47:11.254Z,60.87
2018-11-11T12:49:41.206Z,60.11
2018-11-11T12:52:11.244Z,61.14
2018-11-11T12:54:41.284Z,59.74
2018-11-11T12:57:11.379Z,59.72
2018-11-11T12:59:41.172Z,59.46
2018-11-11T13:02:11.235Z,59.75
2018-11-11T13:04:41.279Z,60.09
2018-11-11T13:07:10.421Z,60.53
2018-11-11T13:09:39.576Z,60.73
2018-11-11T13:12:08.979Z,59.71
2018-11-11T13:14:38.038Z,59.82
2018-11-11T13:17:07.288Z,60.24
2018-11-11T13:19:36.506Z,59.51
2018-11-11T13:22:05.827Z,61.02
2018-11-11T13:24:34.918Z,60.35
2018-11-11T13:27:04.146Z,59.43
2018-11-11T13:29:33.278Z,59.37
2018-11-11T13:32:02.487Z,58.99
2018-11-11T13:34:31.671Z,58.46
2018-11-11T13:37:00.826Z,58.67
2018-11-11T13:39:30.104Z,59.73
2018-11-11T13:41:59.230Z,59.10
2018-11-11T13:44:28.431Z,59.12
2018-11-11T13:46:58.838Z,58.69
2018-11-11T13:49:27.982Z,59.43
2018-11-11T13:51:57.118Z,58.76
2018-11-11T13:54:26.296Z,58.60
2018-11-11T13:56:55.451Z,59.17
2018-11-11T13:59:24.683Z,58.57
2018-11-11T14:01:53.817Z,59.02
2018-11-11T14:04:23.050Z,58.90
2018-11-11T14:06:52.404Z,59.24
2018-11-11T14:09:21.571Z,59.56
2018-11-11T14:11:50.801Z,59.29
2018-11-11T14:14:20.150Z,59.67
2018-11-11T14:16:49.309Z,59.23
2018-11-11T14:19:18.635Z,60.14
2018-11-11T14:21:47.603Z,60.06
2018-11-11T14:24:16.778Z,60.79
2018-11-11T14:26:46.047Z,60.78
2018-11-11T14:29:15.247Z,60.65
2018-11-11T14:31:44.379Z,60.99
2018-11-11T14:34:13.674Z,60.04
2018-11-11T14:36:43.023Z,61.09
2018-11-11T14:39:13.909Z,60.52
2018-11-11T14:41:43.495Z,60.18
2018-11-11T14:44:12.783Z,60.51
2018-11-11T14:46:41.943Z,61.25
2018-11-11T14:49:11.592Z,60.65
2018-11-11T14:51:41.681Z,60.79
2018-11-11T14:54:11.652Z,60.90
2018-11-11T14:56:50.108Z,61.35
2018-11-11T14:59:32.718Z,61.04
2018-11-11T15:02:01.946Z,60.20
2018-11-11T15:04:31.114Z,60.97
2018-11-11T15:07:00.263Z,60.70
2018-11-11T15:09:29.444Z,60.33
2018-11-11T15:11:59.258Z,60.55
2018-11-11T15:14:28.498Z,59.96
2018-11-11T15:16:57.647Z,61.01
2018-11-11T15:19:27.099Z,59.72
2018-11-11T15:21:55.973Z,60.49
2018-11-11T15:24:25.374Z,60.91
2018-11-11T15:26:55.083Z,60.89
2018-11-11T15:29:24.243Z,60.86
2018-11-11T15:31:53.379Z,61.34
2018-11-11T15:34:22.552Z,60.54
2018-11-11T15:36:51.704Z,61.17
2018-11-11T15:39:21.025Z,60.81
2018-11-11T15:41:50.147Z,61.99
2018-11-11T15:44:19.398Z,61.53
2018-11-11T15:46:48.547Z,61.85
2018-11-11T15:49:17.762Z,62.47
2018-11-11T15:51:46.908Z,61.82
2018-11-11T15:54:16.203Z,61.67
2018-11-11T15:56:45.346Z,61.62
2018-11-11T15:59:14.624Z,61.35
2018-11-11T16:01:43.716Z,61.89
2018-11-11T16:04:13.330Z,62.09
2018-11-11T16:06:42.462Z,62.78
2018-11-11T16:09:11.863Z,63.26
2018-11-11T16:11:41.629Z,62.97
2018-11-11T16:14:11.983Z,62.32
2018-11-11T16:16:41.714Z,63.29
2018-11-11T16:19:11.763Z,63.47
2018-11-11T16:21:41.740Z,63.88
2018-11-11T16:24:11.670Z,62.78
2018-11-11T16:26:41.686Z,63.13
2018-11-11T16:29:11.671Z,63.10
2018-11-11T16:31:41.782Z,63.80
2018-11-11T16:34:11.800Z,63.38
2018-11-11T16:36:41.769Z,64.00
2018-11-11T16:39:12.863Z,63.57
2018-11-11T16:41:42.885Z,64.30
2018-11-11T16:44:12.020Z,63.96
2018-11-11T16:46:41.733Z,63.54
2018-11-11T16:49:11.728Z,63.81
2018-11-11T16:51:41.762Z,64.44
2018-11-11T16:54:11.795Z,64.84
2018-11-11T16:56:42.065Z,65.23
2018-11-11T16:59:11.806Z,64.25
2018-11-11T17:01:41.906Z,65.11
2018-11-11T17:04:11.782Z,64.29
2018-11-11T17:06:41.871Z,65.38
2018-11-11T17:09:13.773Z,65.63
2018-11-11T17:11:42.924Z,65.65
2018-11-11T17:14:12.231Z,65.39
2018-11-11T17:16:41.835Z,65.15
2018-11-11T17:19:11.839Z,65.05
2018-11-11T17:21:42.163Z,66.55
2018-11-11T17:24:11.919Z,66.22
2018-11-11T17:26:42.083Z,65.67
2018-11-11T17:29:11.799Z,64.99
2018-11-11T17:31:41.834Z,65.93
2018-11-11T17:34:11.818Z,66.28
2018-11-11T17:36:42.583Z,65.91
2018-11-11T17:39:12.388Z,65.96
2018-11-11T17:41:42.116Z,66.28
2018-11-11T17:44:11.908Z,66.54
2018-11-11T17:46:41.949Z,66.53
2018-11-11T17:49:11.908Z,67.06
2018-11-11T17:51:42.126Z,66.81
2018-11-11T17:54:11.916Z,66.73
2018-11-11T17:56:41.967Z,66.31
2018-11-11T17:59:11.903Z,65.98
2018-11-11T18:01:42.004Z,66.45
2018-11-11T18:04:12.050Z,66.57
2018-11-11T18:06:42.079Z,66.36
2018-11-11T18:09:12.135Z,66.39
2018-11-11T18:11:41.884Z,67.37
2018-11-11T18:14:12.030Z,67.00
2018-11-11T18:16:41.964Z,67.67
2018-11-11T18:19:11.942Z,66.63
2018-11-11T18:21:41.972Z,66.98
2018-11-11T18:24:12.033Z,67.56
2018-11-11T18:26:42.064Z,68.26
2018-11-11T18:29:20.394Z,68.08
2018-11-11T18:31:50.066Z,66.92
2018-11-11T18:34:19.219Z,67.17
2018-11-11T18:36:48.414Z,66.67
2018-11-11T18:39:17.570Z,67.37
2018-11-11T18:41:46.837Z,67.58
2018-11-11T18:44:15.918Z,67.25
2018-11-11T18:46:45.082Z,67.01
2018-11-11T18:49:14.232Z,67.08
2018-11-11T18:51:43.380Z,67.57
2018-11-11T18:54:12.543Z,67.18
2018-11-11T18:56:41.989Z,67.97
2018-11-11T18:59:12.115Z,67.51
2018-11-11T19:01:41.987Z,67.98
2018-11-11T19:04:12.451Z,67.55
2018-11-11T19:06:42.356Z,67.71
2018-11-11T19:09:14.002Z,67.49
2018-11-11T19:11:43.167Z,67.80
2018-11-11T19:14:12.419Z,67.34
2018-11-11T19:16:42.044Z,67.13
2018-11-11T19:19:12.156Z,67.21
2018-11-11T19:21:43.183Z,67.37
2018-11-11T19:24:12.437Z,67.62
2018-11-11T19:26:42.279Z,67.43
2018-11-11T19:29:12.142Z,67.52
2018-11-11T19:31:42.943Z,67.88
2018-11-11T19:34:12.113Z,67.66
2018-11-11T19:36:42.118Z,67.92
2018-11-11T19:39:13.212Z,68.03
2018-11-11T19:41:42.671Z,67.90
2018-11-11T19:44:12.208Z,68.48
2018-11-11T19:46:42.382Z,68.29
2018-11-11T19:49:12.229Z,67.96
2018-11-11T19:51:42.449Z,67.69
2018-11-11T19:54:12.218Z,67.12
2018-11-11T19:56:42.283Z,67.89
2018-11-11T19:59:12.517Z,67.53
2018-11-11T20:01:42.375Z,66.99
2018-11-11T20:04:12.249Z,67.84
2018-11-11T20:06:42.312Z,67.86
2018-11-11T20:09:13.909Z,67.90
2018-11-11T20:11:44.215Z,68.15
2018-11-11T20:14:13.435Z,67.50
2018-11-11T20:16:42.625Z,67.68
2018-11-11T20:19:12.330Z,66.98
2018-11-11T20:21:42.406Z,67.29
2018-11-11T20:24:12.232Z,67.66
2018-11-11T20:26:42.334Z,68.39
2018-11-11T20:29:12.287Z,68.77
2018-11-11T20:31:42.330Z,68.84
2018-11-11T20:34:12.376Z,70.05
2018-11-11T20:36:42.267Z,70.09
2018-11-11T20:39:13.403Z,68.45
2018-11-11T20:41:42.552Z,68.16
2018-11-11T20:44:12.303Z,68.82
2018-11-11T20:46:42.338Z,68.61
2018-11-11T20:49:12.279Z,67.86
2018-11-11T20:51:42.270Z,67.88
2018-11-11T20:54:12.375Z,67.38
2018-11-11T20:56:42.468Z,67.83
2018-11-11T20:59:12.388Z,67.76
2018-11-11T21:01:43.284Z,67.47
2018-11-11T21:04:12.475Z,67.92
2018-11-11T21:06:42.307Z,67.54
2018-11-11T21:09:13.689Z,67.67
2018-11-11T21:11:42.931Z,67.19
2018-11-11T21:14:12.362Z,67.42
2018-11-11T21:16:42.399Z,67.23
2018-11-11T21:19:12.618Z,67.58
2018-11-11T21:21:42.690Z,67.25
2018-11-11T21:24:12.315Z,67.54
2018-11-11T21:26:42.314Z,67.39
2018-11-11T21:29:12.384Z,68.05
2018-11-11T21:31:42.331Z,68.07
2018-11-11T21:34:12.696Z,67.77
2018-11-11T21:36:42.371Z,67.42
2018-11-11T21:39:13.678Z,67.55
2018-11-11T21:41:42.962Z,68.01
2018-11-11T21:44:12.391Z,67.98
2018-11-11T21:46:42.404Z,67.70
2018-11-11T21:49:12.440Z,67.45
2018-11-11T21:51:42.420Z,67.93
2018-11-11T21:54:12.416Z,67.40
2018-11-11T21:56:42.460Z,67.47
2018-11-11T21:59:12.456Z,67.99
2018-11-11T22:01:42.556Z,67.52
2018-11-11T22:04:12.487Z,68.22
2018-11-11T22:06:42.462Z,67.32
2018-11-11T22:09:12.462Z,67.30
2018-11-11T22:11:42.849Z,67.42
2018-11-11T22:14:12.443Z,67.01
2018-11-11T22:16:42.475Z,67.26
2018-11-11T22:19:12.483Z,67.08
2018-11-11T22:21:42.515Z,67.41
2018-11-11T22:24:12.499Z,67.60
2018-11-11T22:26:42.698Z,66.73
2018-11-11T22:29:12.452Z,67.41
2018-11-11T22:31:42.663Z,66.82
2018-11-11T22:34:12.551Z,66.46
2018-11-11T22:36:42.562Z,66.90
2018-11-11T22:39:13.096Z,67.32
2018-11-11T22:41:43.180Z,67.10
2018-11-11T22:44:12.616Z,67.00
2018-11-11T22:46:42.582Z,67.01
2018-11-11T22:49:12.539Z,66.81
2018-11-11T22:51:42.606Z,66.36
2018-11-11T22:54:12.529Z,66.55
2018-11-11T22:56:42.582Z,66.75
2018-11-11T22:59:13.399Z,66.47
2018-11-11T23:01:42.988Z,66.22
2018-11-11T23:04:12.638Z,66.97
2018-11-11T23:06:42.615Z,67.65
2018-11-11T23:09:13.019Z,67.06
2018-11-11T23:11:45.146Z,67.67
2018-11-11T23:14:14.284Z,67.27
2018-11-11T23:16:43.426Z,67.47
2018-11-11T23:19:12.648Z,67.20
2018-11-11T23:21:42.549Z,67.54
2018-11-11T23:24:12.607Z,67.50
2018-11-11T23:26:42.659Z,66.75
2018-11-11T23:29:12.846Z,66.52
2018-11-11T23:31:42.695Z,66.91
2018-11-11T23:34:12.611Z,66.72
2018-11-11T23:36:42.615Z,66.83
2018-11-11T23:39:12.662Z,67.25
2018-11-11T23:41:43.212Z,66.58
2018-11-11T23:44:12.586Z,66.68
2018-11-11T23:46:42.687Z,66.82
2018-11-11T23:49:12.704Z,66.84
2018-11-11T23:51:42.651Z,67.07
2018-11-11T23:54:12.628Z,66.95
2018-11-11T23:56:42.644Z,67.25
2018-11-11T23:59:11.799Z,67.85
